Tower, Michigan
Current Conditions -  °F | °C
As of 4:37 PM on Friday 28 Nov 2014 (Local Time) from KSLH Reporting Station
Overcast Overcast  
Wind Chill: 18°   Ceiling: 11000
Heat Index: 24°   Visibility: 10mi
Dew Point: 18°   Wind: 5mph
Humidity: 77%   Direction: 170°S
Pressure: 30.09"   Gusts: NA
Location:  45.36°N, 84.3°W
Report Text: KSLH 282137Z AUTO 17004KT 10SM OVC110 M04/M07 A3009 RMK AO2 T10451080
Loading
Personal Weather Stations






























Interactive Weather Map New forecast layout! Learn more

10-Day Weather Forecast

Advertisements
Track Severe Weather on mobile